createdAt,value
2024-02-19T00:01:47.522Z,2.74
2024-02-19T00:04:16.224Z,2.78
2024-02-19T00:06:43.671Z,2.69
2024-02-19T00:09:11.072Z,2.57
2024-02-19T00:11:39.021Z,2.42
2024-02-19T00:14:06.462Z,2.33
2024-02-19T00:16:33.776Z,2.26
2024-02-19T00:19:01.202Z,2.22
2024-02-19T00:21:28.535Z,2.19
2024-02-19T00:23:55.856Z,2.16
2024-02-19T00:26:23.131Z,2.17
2024-02-19T00:28:50.538Z,2.11
2024-02-19T00:31:17.925Z,2.09
2024-02-19T00:33:45.375Z,2.04
2024-02-19T00:36:12.767Z,2.00
2024-02-19T00:38:40.109Z,1.96
2024-02-19T00:41:07.427Z,1.92
2024-02-19T00:43:34.752Z,1.92
2024-02-19T00:46:02.117Z,1.89
2024-02-19T00:48:29.547Z,1.84
2024-02-19T00:50:56.913Z,1.78
2024-02-19T00:53:24.254Z,1.86
2024-02-19T00:55:53.892Z,1.78
2024-02-19T00:58:21.550Z,1.71
2024-02-19T01:00:49.213Z,1.68
2024-02-19T01:03:18.252Z,1.64
2024-02-19T01:05:45.802Z,1.68
2024-02-19T01:08:13.135Z,1.65
2024-02-19T01:10:40.444Z,1.68
2024-02-19T01:13:07.837Z,1.70
2024-02-19T01:15:35.184Z,1.65
2024-02-19T01:18:02.602Z,1.62
2024-02-19T01:20:29.904Z,1.58
2024-02-19T01:22:59.055Z,1.58
2024-02-19T01:25:26.498Z,1.56
2024-02-19T01:27:53.928Z,1.52
2024-02-19T01:30:23.894Z,1.48
2024-02-19T01:32:51.646Z,1.42
2024-02-19T01:35:19.006Z,1.38
2024-02-19T01:37:47.290Z,1.33
2024-02-19T01:40:14.784Z,1.30
2024-02-19T01:42:42.523Z,1.28
2024-02-19T01:45:26.409Z,1.35
2024-02-19T01:47:57.406Z,1.38
2024-02-19T01:50:25.046Z,1.38
2024-02-19T01:52:52.709Z,1.42
2024-02-19T01:55:20.336Z,1.45
2024-02-19T01:57:48.235Z,1.47
2024-02-19T02:00:17.937Z,1.49
2024-02-19T02:02:45.464Z,1.41
2024-02-19T02:05:14.213Z,1.33
2024-02-19T02:07:42.645Z,1.21
2024-02-19T02:10:10.165Z,1.21
2024-02-19T02:12:37.631Z,1.12
2024-02-19T02:15:05.369Z,1.07
2024-02-19T02:17:32.765Z,0.98
2024-02-19T02:20:00.357Z,1.00
2024-02-19T02:22:27.922Z,0.85
2024-02-19T02:24:56.393Z,0.89
2024-02-19T02:27:23.783Z,0.81
2024-02-19T02:29:51.061Z,0.83
2024-02-19T02:32:18.434Z,0.75
2024-02-19T02:34:45.738Z,0.70
2024-02-19T02:37:13.866Z,0.67
2024-02-19T02:39:41.781Z,0.64
2024-02-19T02:42:09.136Z,0.58
2024-02-19T02:44:36.409Z,0.54
2024-02-19T02:47:04.517Z,0.50
2024-02-19T02:49:31.978Z,0.48
2024-02-19T02:51:59.336Z,0.47
2024-02-19T02:54:26.669Z,0.44
2024-02-19T02:56:53.942Z,0.43
2024-02-19T02:59:21.333Z,0.41
2024-02-19T03:01:49.388Z,0.40
2024-02-19T03:04:17.764Z,0.42
2024-02-19T03:06:45.347Z,0.40
2024-02-19T03:09:12.754Z,0.39
2024-02-19T03:11:40.052Z,0.38
2024-02-19T03:14:07.931Z,0.32
2024-02-19T03:16:35.542Z,0.40
2024-02-19T03:19:06.457Z,0.41
2024-02-19T03:21:33.894Z,0.45
2024-02-19T03:24:01.177Z,0.44
2024-02-19T03:28:59.163Z,0.44
2024-02-19T03:31:26.472Z,0.39
2024-02-19T03:33:53.957Z,0.35
2024-02-19T03:36:21.366Z,0.36
2024-02-19T03:38:48.618Z,0.34
2024-02-19T03:41:15.872Z,0.36
2024-02-19T03:43:43.175Z,0.40
2024-02-19T03:46:10.594Z,0.52
2024-02-19T03:48:38.498Z,0.61
2024-02-19T03:51:05.890Z,0.64
2024-02-19T03:53:33.160Z,0.77
2024-02-19T03:56:01.258Z,0.82
2024-02-19T03:58:28.573Z,0.87
2024-02-19T04:00:56.123Z,0.94
2024-02-19T04:03:23.496Z,0.99
2024-02-19T04:05:50.843Z,0.93
2024-02-19T04:08:18.316Z,0.97
2024-02-19T04:10:45.646Z,0.97
2024-02-19T04:13:13.018Z,0.97
2024-02-19T04:15:40.347Z,1.09
2024-02-19T04:18:07.754Z,1.35
2024-02-19T04:20:35.094Z,1.59
2024-02-19T04:23:02.397Z,1.77
2024-02-19T04:25:29.767Z,1.94
2024-02-19T04:27:57.118Z,1.93
2024-02-19T04:30:24.509Z,1.92
2024-02-19T04:32:51.837Z,1.87
2024-02-19T04:35:19.879Z,1.84
2024-02-19T04:37:47.191Z,1.84
2024-02-19T04:40:15.120Z,1.80
2024-02-19T04:42:42.503Z,1.77
2024-02-19T04:45:09.940Z,1.72
2024-02-19T04:47:37.337Z,1.64
2024-02-19T04:50:05.187Z,1.59
2024-02-19T04:52:32.636Z,1.53
2024-02-19T04:54:59.992Z,1.45
2024-02-19T04:57:27.276Z,1.33
2024-02-19T04:59:54.571Z,1.31
2024-02-19T05:02:21.877Z,1.22
2024-02-19T05:04:49.360Z,1.18
2024-02-19T05:07:17.062Z,1.17
2024-02-19T05:09:44.871Z,1.22
2024-02-19T05:12:12.133Z,1.20
2024-02-19T05:14:39.406Z,1.22
2024-02-19T05:17:06.663Z,1.19
2024-02-19T05:19:34.103Z,1.20
2024-02-19T05:22:01.955Z,1.20
2024-02-19T05:24:29.391Z,1.27
2024-02-19T05:26:56.684Z,1.38
2024-02-19T05:29:25.197Z,1.38
2024-02-19T05:31:55.611Z,1.39
2024-02-19T05:34:23.032Z,1.34
2024-02-19T05:36:50.401Z,1.38
2024-02-19T05:39:17.781Z,1.42
2024-02-19T05:41:45.077Z,1.45
2024-02-19T05:44:12.483Z,1.49
2024-02-19T05:46:39.784Z,1.52
2024-02-19T05:49:07.126Z,1.53
2024-02-19T05:51:34.525Z,1.53
2024-02-19T05:54:01.807Z,1.53
2024-02-19T05:56:30.303Z,1.63
2024-02-19T05:58:57.715Z,1.69
2024-02-19T06:01:25.294Z,1.71
2024-02-19T06:03:52.655Z,1.75
2024-02-19T06:06:19.976Z,1.81
2024-02-19T06:08:47.253Z,1.77
2024-02-19T06:11:14.616Z,1.92
2024-02-19T06:13:41.924Z,1.99
2024-02-19T06:16:09.323Z,2.02
2024-02-19T06:18:36.798Z,2.12
2024-02-19T06:21:04.319Z,2.24
2024-02-19T06:23:31.581Z,2.29
2024-02-19T06:25:59.473Z,2.28
2024-02-19T06:28:26.824Z,2.25
2024-02-19T06:30:54.379Z,2.28
2024-02-19T06:33:21.751Z,2.21
2024-02-19T06:35:50.311Z,2.22
2024-02-19T06:38:17.671Z,2.23
2024-02-19T06:40:44.926Z,2.30
2024-02-19T06:43:12.210Z,2.30
2024-02-19T06:45:39.689Z,2.28
2024-02-19T06:48:07.287Z,2.26
2024-02-19T06:50:34.720Z,2.16
2024-02-19T06:53:02.072Z,2.16
2024-02-19T06:55:29.469Z,2.14
2024-02-19T06:57:57.088Z,2.12
2024-02-19T07:00:26.697Z,2.20
2024-02-19T07:02:54.064Z,2.22
2024-02-19T07:05:21.633Z,2.18
2024-02-19T07:07:49.067Z,2.20
2024-02-19T07:10:16.561Z,2.16
2024-02-19T07:12:43.943Z,2.08
2024-02-19T07:15:11.338Z,2.09
2024-02-19T07:17:38.647Z,2.07
2024-02-19T07:20:06.524Z,2.10
2024-02-19T07:22:33.978Z,2.19
2024-02-19T07:25:10.189Z,2.12
2024-02-19T07:27:44.431Z,2.22
2024-02-19T07:30:13.649Z,2.20
2024-02-19T07:32:41.071Z,2.23
2024-02-19T07:35:08.654Z,2.28
2024-02-19T07:37:36.141Z,2.41
2024-02-19T07:40:08.650Z,2.50
2024-02-19T07:42:36.146Z,2.44
2024-02-19T07:45:06.649Z,2.36
2024-02-19T07:47:34.374Z,2.54
2024-02-19T07:50:01.963Z,2.65
2024-02-19T07:52:29.383Z,2.73
2024-02-19T07:54:56.868Z,2.80
2024-02-19T07:57:24.206Z,2.69
2024-02-19T07:59:51.506Z,2.67
2024-02-19T08:02:19.081Z,2.64
2024-02-19T08:04:46.530Z,2.63
2024-02-19T08:07:13.979Z,2.65
2024-02-19T08:09:41.385Z,2.76
2024-02-19T08:12:09.789Z,2.79
2024-02-19T08:14:37.160Z,2.84
2024-02-19T08:17:04.788Z,2.69
2024-02-19T08:19:32.212Z,2.81
2024-02-19T08:22:00.057Z,2.90
2024-02-19T08:24:27.395Z,3.07
2024-02-19T08:26:54.690Z,3.01
2024-02-19T08:29:22.033Z,3.24
2024-02-19T08:31:49.429Z,3.40
2024-02-19T08:34:18.110Z,3.47
2024-02-19T08:36:45.678Z,3.33
2024-02-19T08:39:13.007Z,3.22
2024-02-19T08:41:40.295Z,3.23
2024-02-19T08:44:07.580Z,3.27
2024-02-19T08:46:34.934Z,3.23
2024-02-19T08:49:02.312Z,3.18
2024-02-19T08:51:30.659Z,3.09
2024-02-19T08:54:00.051Z,3.01
2024-02-19T08:56:27.731Z,2.98
2024-02-19T08:58:55.033Z,3.02
2024-02-19T09:01:22.583Z,3.04
2024-02-19T09:03:50.147Z,3.04
2024-02-19T09:06:18.108Z,3.04
2024-02-19T09:08:45.474Z,3.07
2024-02-19T09:11:12.784Z,3.10
2024-02-19T09:13:40.108Z,3.21
2024-02-19T09:16:07.625Z,3.24
2024-02-19T09:18:35.198Z,3.36
2024-02-19T09:21:02.640Z,3.41
2024-02-19T09:23:31.533Z,3.47
2024-02-19T09:25:59.202Z,3.52
2024-02-19T09:28:26.645Z,3.55
2024-02-19T09:30:54.787Z,3.63
2024-02-19T09:33:22.407Z,3.73
2024-02-19T09:35:49.735Z,3.73
2024-02-19T09:38:17.189Z,3.75
2024-02-19T09:40:48.587Z,3.75
2024-02-19T09:43:16.489Z,3.80
2024-02-19T09:45:44.696Z,3.88
2024-02-19T09:48:12.292Z,4.06
2024-02-19T09:50:48.434Z,4.19
2024-02-19T09:53:28.610Z,4.23
2024-02-19T09:55:57.158Z,4.22
2024-02-19T09:58:24.799Z,4.13
2024-02-19T10:00:52.347Z,4.18
2024-02-19T10:03:20.090Z,4.31
2024-02-19T10:05:48.957Z,4.33
2024-02-19T10:08:17.605Z,4.58
2024-02-19T10:10:46.532Z,4.65
2024-02-19T10:13:14.831Z,4.65
2024-02-19T10:15:42.498Z,4.70
2024-02-19T10:18:16.958Z,4.71
2024-02-19T10:20:52.072Z,4.70
2024-02-19T10:23:22.634Z,4.89
2024-02-19T10:25:50.827Z,4.81
2024-02-19T10:28:22.662Z,4.85
2024-02-19T10:30:50.305Z,4.85
2024-02-19T10:33:17.725Z,4.96
2024-02-19T10:35:45.476Z,4.98
2024-02-19T10:38:13.214Z,4.98
2024-02-19T10:40:40.555Z,5.00
2024-02-19T10:43:07.857Z,5.11
2024-02-19T10:45:35.617Z,5.16
2024-02-19T10:48:03.004Z,5.25
2024-02-19T10:50:33.726Z,5.28
2024-02-19T10:53:01.225Z,5.33
2024-02-19T10:55:36.554Z,5.52
2024-02-19T10:58:16.419Z,5.53
2024-02-19T11:00:44.341Z,5.65
2024-02-19T11:03:14.827Z,5.71
2024-02-19T11:05:44.070Z,5.68
2024-02-19T11:08:21.293Z,5.77
2024-02-19T11:10:51.511Z,5.84
2024-02-19T11:13:28.647Z,5.80
2024-02-19T11:15:56.647Z,5.89
2024-02-19T11:18:24.270Z,6.02
2024-02-19T11:20:51.919Z,6.10
2024-02-19T11:23:20.215Z,6.20
2024-02-19T11:25:47.867Z,6.30
2024-02-19T11:28:15.279Z,6.39
2024-02-19T11:30:42.725Z,6.44
2024-02-19T11:33:10.882Z,6.42
2024-02-19T11:35:39.095Z,6.51
2024-02-19T11:38:06.518Z,6.56
2024-02-19T11:40:34.390Z,6.56
2024-02-19T11:43:05.189Z,6.64
2024-02-19T11:45:32.955Z,6.71
2024-02-19T11:48:00.435Z,6.76
2024-02-19T11:50:31.198Z,6.93
2024-02-19T11:53:01.905Z,7.21
2024-02-19T11:55:31.431Z,7.35
2024-02-19T11:58:03.054Z,7.51
2024-02-19T12:00:32.162Z,7.70
2024-02-19T12:03:00.354Z,7.73
2024-02-19T12:05:28.158Z,7.85
2024-02-19T12:07:57.416Z,7.83
2024-02-19T12:10:24.942Z,7.82
2024-02-19T12:12:52.878Z,7.79
2024-02-19T12:15:20.767Z,7.73
2024-02-19T12:17:53.179Z,7.71
2024-02-19T12:20:21.071Z,7.71
2024-02-19T12:22:49.169Z,7.77
2024-02-19T12:25:16.617Z,7.71
2024-02-19T12:27:44.275Z,7.64
2024-02-19T12:30:11.712Z,7.56
2024-02-19T12:32:40.475Z,7.61
2024-02-19T12:35:08.512Z,7.58
2024-02-19T12:37:36.048Z,7.65
2024-02-19T12:40:04.619Z,7.88
2024-02-19T12:42:32.243Z,7.80
2024-02-19T12:44:59.554Z,7.69
2024-02-19T12:47:27.239Z,7.67
2024-02-19T12:49:54.811Z,7.57
2024-02-19T12:52:28.793Z,7.54
2024-02-19T12:54:56.672Z,7.54
2024-02-19T12:57:24.334Z,7.54
2024-02-19T12:59:51.798Z,7.52
2024-02-19T13:02:19.558Z,7.50
2024-02-19T13:04:48.364Z,7.71
2024-02-19T13:07:16.572Z,7.81
2024-02-19T13:09:45.431Z,7.87
2024-02-19T13:12:15.265Z,7.89
2024-02-19T13:14:44.631Z,7.81
2024-02-19T13:17:16.826Z,7.90
2024-02-19T13:19:49.565Z,8.12
2024-02-19T13:22:17.206Z,8.14
2024-02-19T13:24:44.673Z,8.06
2024-02-19T13:27:13.107Z,7.99
2024-02-19T13:29:40.523Z,7.85
2024-02-19T13:32:08.849Z,7.99
2024-02-19T13:34:37.074Z,8.09
2024-02-19T13:37:05.228Z,8.04
2024-02-19T13:39:34.345Z,8.07
2024-02-19T13:42:01.952Z,8.02
2024-02-19T13:44:29.305Z,7.87
2024-02-19T13:46:56.613Z,7.87
2024-02-19T13:49:24.029Z,7.90
2024-02-19T13:51:51.526Z,7.82
2024-02-19T13:54:18.978Z,7.72
2024-02-19T13:56:46.747Z,7.66
2024-02-19T13:59:15.709Z,7.64
2024-02-19T14:01:43.331Z,7.61
2024-02-19T14:04:10.888Z,7.61
2024-02-19T14:06:38.745Z,7.54
2024-02-19T14:09:06.211Z,7.56
2024-02-19T14:11:34.085Z,7.51
2024-02-19T14:14:03.143Z,7.41
2024-02-19T14:16:31.687Z,7.36
2024-02-19T14:19:00.624Z,7.43
2024-02-19T14:21:29.600Z,7.41
2024-02-19T14:23:57.233Z,7.43
2024-02-19T14:26:25.169Z,7.43
2024-02-19T14:28:55.642Z,7.34
2024-02-19T14:31:23.921Z,7.34
2024-02-19T14:33:52.446Z,7.32
2024-02-19T14:36:20.925Z,7.36
2024-02-19T14:38:50.233Z,7.41
2024-02-19T14:41:17.602Z,7.30
2024-02-19T14:43:47.726Z,7.33
2024-02-19T14:46:15.013Z,7.25
2024-02-19T14:48:43.756Z,7.22
2024-02-19T14:51:12.360Z,7.15
2024-02-19T14:53:40.604Z,7.14
2024-02-19T14:56:09.142Z,7.17
2024-02-19T14:58:36.467Z,7.12
2024-02-19T15:01:03.937Z,7.12
2024-02-19T15:03:31.335Z,7.11
2024-02-19T15:05:59.046Z,7.03
2024-02-19T15:08:26.485Z,7.01
2024-02-19T15:10:53.896Z,6.89
2024-02-19T15:13:21.299Z,6.90
2024-02-19T15:15:48.763Z,6.89
2024-02-19T15:18:16.737Z,6.92
2024-02-19T15:20:44.624Z,6.94
2024-02-19T15:23:12.152Z,6.95
2024-02-19T15:25:41.034Z,6.97
2024-02-19T15:28:09.140Z,6.88
2024-02-19T15:30:36.469Z,6.85
2024-02-19T15:33:03.967Z,6.85
2024-02-19T15:35:31.456Z,6.85
2024-02-19T15:37:58.895Z,6.79
2024-02-19T15:40:26.938Z,6.76
2024-02-19T15:42:57.713Z,6.75
2024-02-19T15:45:25.050Z,6.73
2024-02-19T15:47:52.404Z,6.72
2024-02-19T15:50:19.937Z,6.76
2024-02-19T15:52:55.497Z,6.74
2024-02-19T15:55:29.334Z,6.69
2024-02-19T15:57:58.240Z,6.71
2024-02-19T16:00:25.801Z,6.74
2024-02-19T16:02:53.079Z,6.74
2024-02-19T16:05:20.441Z,6.71
2024-02-19T16:07:50.213Z,6.63
2024-02-19T16:10:17.564Z,6.58
2024-02-19T16:12:46.312Z,6.55
2024-02-19T16:15:14.420Z,6.49
2024-02-19T16:17:41.923Z,6.43
2024-02-19T16:20:10.040Z,6.39
2024-02-19T16:22:37.837Z,6.33
2024-02-19T16:25:08.043Z,6.31
2024-02-19T16:27:36.821Z,6.31
2024-02-19T16:30:07.101Z,6.23
2024-02-19T16:32:36.585Z,6.15
2024-02-19T16:35:04.387Z,6.10
2024-02-19T16:37:32.165Z,6.00
2024-02-19T16:39:59.676Z,5.87
2024-02-19T16:42:27.016Z,5.77
2024-02-19T16:44:54.340Z,5.69
2024-02-19T16:47:21.650Z,5.64
2024-02-19T16:49:49.010Z,5.53
2024-02-19T16:52:16.729Z,5.44
2024-02-19T16:54:44.588Z,5.43
2024-02-19T16:57:11.975Z,5.48
2024-02-19T16:59:39.268Z,5.42
2024-02-19T17:02:06.651Z,5.35
2024-02-19T17:04:34.121Z,5.31
2024-02-19T17:07:03.088Z,5.30
2024-02-19T17:09:33.328Z,5.27
2024-02-19T17:12:01.051Z,5.23
2024-02-19T17:14:28.376Z,5.23
2024-02-19T17:16:58.155Z,5.25
2024-02-19T17:19:25.756Z,5.29
2024-02-19T17:21:53.144Z,5.35
2024-02-19T17:24:20.711Z,5.42
2024-02-19T17:26:48.490Z,5.43
2024-02-19T17:29:15.840Z,5.47
2024-02-19T17:31:46.440Z,5.51
2024-02-19T17:34:14.634Z,5.56
2024-02-19T17:36:42.027Z,5.55
2024-02-19T17:39:09.304Z,5.62
2024-02-19T17:41:36.568Z,5.65
2024-02-19T17:44:03.945Z,5.66
2024-02-19T17:46:31.443Z,5.75
2024-02-19T17:48:59.063Z,5.83
2024-02-19T17:51:29.653Z,5.90
2024-02-19T17:53:59.751Z,5.85
2024-02-19T17:56:29.561Z,5.88
2024-02-19T17:58:57.288Z,5.88
2024-02-19T18:01:26.960Z,5.88
2024-02-19T18:03:54.944Z,5.85
2024-02-19T18:06:22.432Z,5.80
2024-02-19T18:08:52.939Z,5.83
2024-02-19T18:11:20.475Z,5.89
2024-02-19T18:13:48.095Z,5.81
2024-02-19T18:16:15.972Z,5.78
2024-02-19T18:18:45.876Z,5.66
2024-02-19T18:21:13.365Z,5.69
2024-02-19T18:23:40.776Z,5.72
2024-02-19T18:26:08.445Z,5.69
2024-02-19T18:28:37.063Z,5.64
2024-02-19T18:31:13.965Z,5.59
2024-02-19T18:33:41.281Z,5.46
2024-02-19T18:36:08.592Z,5.35
2024-02-19T18:38:38.511Z,5.27
2024-02-19T18:41:07.031Z,5.17
2024-02-19T18:43:34.531Z,5.16
2024-02-19T18:46:02.911Z,5.18
2024-02-19T18:48:31.667Z,5.11
2024-02-19T18:50:59.854Z,5.07
2024-02-19T18:53:27.917Z,5.17
2024-02-19T18:56:02.495Z,5.03
2024-02-19T18:58:30.483Z,4.98
2024-02-19T19:01:01.698Z,4.97
2024-02-19T19:03:29.315Z,4.93
2024-02-19T19:06:00.462Z,4.96
2024-02-19T19:08:27.912Z,4.90
2024-02-19T19:10:55.264Z,4.97
2024-02-19T19:13:22.631Z,4.95
2024-02-19T19:15:50.144Z,4.87
2024-02-19T19:18:17.794Z,4.82
2024-02-19T19:20:45.199Z,4.76
2024-02-19T19:23:12.566Z,4.70
2024-02-19T19:25:39.921Z,4.62
2024-02-19T19:28:07.499Z,4.49
2024-02-19T19:30:34.862Z,4.41
2024-02-19T19:33:02.250Z,4.33
2024-02-19T19:35:29.706Z,4.24
2024-02-19T19:37:58.168Z,4.15
2024-02-19T19:40:25.595Z,4.09
2024-02-19T19:42:54.079Z,4.05
2024-02-19T19:45:22.949Z,4.03
2024-02-19T19:47:50.482Z,4.03
2024-02-19T19:50:20.151Z,4.01
2024-02-19T19:52:47.843Z,4.01
2024-02-19T19:55:15.322Z,4.05
2024-02-19T19:57:48.138Z,4.04
2024-02-19T20:00:16.182Z,4.05
2024-02-19T20:02:45.653Z,4.04
2024-02-19T20:05:13.342Z,3.98
2024-02-19T20:07:41.053Z,3.95
2024-02-19T20:10:11.662Z,3.92
2024-02-19T20:12:38.956Z,3.94
2024-02-19T20:15:07.173Z,3.87
2024-02-19T20:17:36.214Z,3.81
2024-02-19T20:20:04.507Z,3.80
2024-02-19T20:22:32.165Z,3.84
2024-02-19T20:24:59.591Z,3.92
2024-02-19T20:27:27.014Z,3.88
2024-02-19T20:29:54.912Z,3.82
2024-02-19T20:32:23.355Z,3.85
2024-02-19T20:34:50.981Z,3.90
2024-02-19T20:37:18.505Z,3.96
2024-02-19T20:39:46.367Z,4.03
2024-02-19T20:42:16.086Z,4.09
2024-02-19T20:44:46.843Z,4.14
2024-02-19T20:47:14.415Z,4.17
2024-02-19T20:49:44.024Z,4.28
2024-02-19T20:52:11.780Z,4.25
2024-02-19T20:54:39.145Z,4.32
2024-02-19T20:57:09.687Z,4.25
2024-02-19T20:59:37.492Z,4.31
2024-02-19T21:02:05.158Z,4.25
2024-02-19T21:04:36.307Z,4.10
2024-02-19T21:07:07.237Z,4.13
2024-02-19T21:09:36.490Z,4.08
2024-02-19T21:12:04.151Z,4.06
2024-02-19T21:14:31.532Z,4.06
2024-02-19T21:16:59.452Z,3.96
2024-02-19T21:19:26.916Z,3.94
2024-02-19T21:21:54.526Z,3.99
2024-02-19T21:24:21.982Z,3.98
2024-02-19T21:26:49.288Z,3.99
2024-02-19T21:29:16.620Z,3.99
2024-02-19T21:31:44.008Z,3.88
2024-02-19T21:34:13.028Z,3.95
2024-02-19T21:36:40.859Z,4.03
2024-02-19T21:39:08.342Z,4.05
2024-02-19T21:41:38.292Z,4.09
2024-02-19T21:44:08.569Z,4.17
2024-02-19T21:46:37.493Z,4.10
2024-02-19T21:49:05.190Z,4.05
2024-02-19T21:51:32.666Z,4.12
2024-02-19T21:53:59.956Z,4.15
2024-02-19T21:56:27.468Z,4.15
2024-02-19T21:58:54.992Z,4.08
2024-02-19T22:01:22.763Z,3.99
2024-02-19T22:03:51.442Z,3.88
2024-02-19T22:06:18.995Z,3.81
2024-02-19T22:08:46.349Z,3.82
2024-02-19T22:11:15.514Z,3.85
2024-02-19T22:13:42.793Z,3.90
2024-02-19T22:16:10.188Z,3.73
2024-02-19T22:18:38.797Z,3.63
2024-02-19T22:21:06.224Z,3.57
2024-02-19T22:23:33.477Z,3.51
2024-02-19T22:26:00.771Z,3.45
2024-02-19T22:28:32.016Z,3.42
2024-02-19T22:30:59.553Z,3.40
2024-02-19T22:33:27.226Z,3.44
2024-02-19T22:35:54.564Z,3.35
2024-02-19T22:38:21.828Z,3.24
2024-02-19T22:40:49.122Z,3.26
2024-02-19T22:43:16.390Z,3.19
2024-02-19T22:45:43.677Z,3.17
2024-02-19T22:48:11.267Z,3.13
2024-02-19T22:50:38.989Z,3.12
2024-02-19T22:53:06.408Z,3.23
2024-02-19T22:55:33.764Z,3.16
2024-02-19T22:58:01.128Z,3.16
2024-02-19T23:00:35.749Z,3.14
2024-02-19T23:03:04.627Z,3.07
2024-02-19T23:05:32.708Z,3.01
2024-02-19T23:08:00.580Z,2.91
2024-02-19T23:10:28.097Z,2.94
2024-02-19T23:12:55.535Z,2.94
2024-02-19T23:15:22.911Z,2.91
2024-02-19T23:17:50.385Z,2.88
2024-02-19T23:20:17.755Z,2.77
2024-02-19T23:22:46.473Z,2.57
2024-02-19T23:25:14.227Z,2.72
2024-02-19T23:27:41.717Z,2.71
2024-02-19T23:30:09.342Z,2.65
2024-02-19T23:32:37.238Z,2.55
2024-02-19T23:35:06.463Z,2.55
2024-02-19T23:37:34.104Z,2.50
2024-02-19T23:40:01.716Z,2.55
2024-02-19T23:42:29.210Z,2.46
2024-02-19T23:44:56.494Z,2.42
2024-02-19T23:47:23.930Z,2.33
2024-02-19T23:49:51.284Z,2.30
2024-02-19T23:52:18.693Z,2.35
2024-02-19T23:54:46.040Z,2.36
2024-02-19T23:57:13.366Z,2.33
2024-02-19T23:59:40.719Z,2.26
